sensor_id;sensor_type;location;lat;lon;timestamp;pressure;altitude;pressure_sealevel;temperature;humidity
63115;BME280;49208;50.874;6.466;2022-07-22T00:00:58;101014.94;;;16.25;92.67
63115;BME280;49208;50.874;6.466;2022-07-22T00:03:24;101015.91;;;16.24;92.56
63115;BME280;49208;50.874;6.466;2022-07-22T00:05:49;101012.34;;;16.23;92.86
63115;BME280;49208;50.874;6.466;2022-07-22T00:08:14;101012.41;;;16.22;92.55
63115;BME280;49208;50.874;6.466;2022-07-22T00:10:40;101011.56;;;16.21;92.64
63115;BME280;49208;50.874;6.466;2022-07-22T00:13:06;101016.94;;;16.21;92.17
63115;BME280;49208;50.874;6.466;2022-07-22T00:15:31;101015.16;;;16.20;92.40
63115;BME280;49208;50.874;6.466;2022-07-22T00:17:57;101011.69;;;16.18;92.26
63115;BME280;49208;50.874;6.466;2022-07-22T00:20:22;101009.00;;;16.18;92.25
63115;BME280;49208;50.874;6.466;2022-07-22T00:22:48;101014.47;;;16.16;92.18
63115;BME280;49208;50.874;6.466;2022-07-22T00:25:13;101008.13;;;16.17;92.21
63115;BME280;49208;50.874;6.466;2022-07-22T00:27:39;101009.97;;;16.17;92.09
63115;BME280;49208;50.874;6.466;2022-07-22T00:30:04;101013.50;;;16.17;91.82
63115;BME280;49208;50.874;6.466;2022-07-22T00:32:30;101006.41;;;16.16;91.71
63115;BME280;49208;50.874;6.466;2022-07-22T00:34:56;101010.91;;;16.16;91.59
63115;BME280;49208;50.874;6.466;2022-07-22T00:37:21;101011.00;;;16.14;91.63
63115;BME280;49208;50.874;6.466;2022-07-22T00:39:46;101010.09;;;16.14;91.43
63115;BME280;49208;50.874;6.466;2022-07-22T00:42:13;101015.56;;;16.12;91.45
63115;BME280;49208;50.874;6.466;2022-07-22T00:44:39;101015.63;;;16.11;91.55
63115;BME280;49208;50.874;6.466;2022-07-22T00:47:05;101013.03;;;16.09;91.75
63115;BME280;49208;50.874;6.466;2022-07-22T00:49:31;101004.97;;;16.09;91.57
63115;BME280;49208;50.874;6.466;2022-07-22T00:51:57;101006.72;;;16.10;91.26
63115;BME280;49208;50.874;6.466;2022-07-22T00:54:22;101004.97;;;16.09;91.10
63115;BME280;49208;50.874;6.466;2022-07-22T00:56:47;100997.78;;;16.10;91.19
63115;BME280;49208;50.874;6.466;2022-07-22T00:59:13;101000.56;;;16.08;91.60
63115;BME280;49208;50.874;6.466;2022-07-22T01:01:39;101003.25;;;16.08;91.12
63115;BME280;49208;50.874;6.466;2022-07-22T01:04:05;100996.91;;;16.09;91.14
63115;BME280;49208;50.874;6.466;2022-07-22T01:06:31;100996.97;;;16.08;90.83
63115;BME280;49208;50.874;6.466;2022-07-22T01:08:56;100993.44;;;16.07;90.89
63115;BME280;49208;50.874;6.466;2022-07-22T01:11:22;100998.81;;;16.07;90.88
63115;BME280;49208;50.874;6.466;2022-07-22T01:13:49;100990.75;;;16.07;90.77
63115;BME280;49208;50.874;6.466;2022-07-22T01:16:15;100994.38;;;16.06;90.87
63115;BME280;49208;50.874;6.466;2022-07-22T01:18:42;100995.25;;;16.07;91.18
63115;BME280;49208;50.874;6.466;2022-07-22T01:21:08;100993.50;;;16.06;90.96
63115;BME280;49208;50.874;6.466;2022-07-22T01:23:34;100990.00;;;16.04;90.76
63115;BME280;49208;50.874;6.466;2022-07-22T01:26:00;100990.91;;;16.04;90.85
63115;BME280;49208;50.874;6.466;2022-07-22T01:28:26;100993.59;;;16.04;91.05
63115;BME280;49208;50.874;6.466;2022-07-22T01:30:51;100987.34;;;16.04;91.17
63115;BME280;49208;50.874;6.466;2022-07-22T01:33:19;100993.59;;;16.04;91.15
63115;BME280;49208;50.874;6.466;2022-07-22T01:35:44;100983.78;;;16.03;91.32
63115;BME280;49208;50.874;6.466;2022-07-22T01:38:10;100985.59;;;16.03;91.44
63115;BME280;49208;50.874;6.466;2022-07-22T01:40:36;100981.16;;;16.02;91.49
63115;BME280;49208;50.874;6.466;2022-07-22T01:43:01;100985.69;;;16.01;91.44
63115;BME280;49208;50.874;6.466;2022-07-22T01:45:27;100977.63;;;16.01;91.52
63115;BME280;49208;50.874;6.466;2022-07-22T01:47:53;100977.69;;;16.00;91.53
63115;BME280;49208;50.874;6.466;2022-07-22T01:50:18;100975.97;;;15.99;91.96
63115;BME280;49208;50.874;6.466;2022-07-22T01:52:43;100977.84;;;15.96;91.85
63115;BME280;49208;50.874;6.466;2022-07-22T01:55:09;100981.47;;;15.95;92.15
63115;BME280;49208;50.874;6.466;2022-07-22T01:57:38;100985.06;;;15.96;92.27
63115;BME280;49208;50.874;6.466;2022-07-22T02:00:05;100983.28;;;15.95;92.23
63115;BME280;49208;50.874;6.466;2022-07-22T02:02:32;100979.69;;;15.96;92.45
63115;BME280;49208;50.874;6.466;2022-07-22T02:04:57;100984.16;;;15.95;92.46
63115;BME280;49208;50.874;6.466;2022-07-22T02:07:22;100984.16;;;15.95;92.44
63115;BME280;49208;50.874;6.466;2022-07-22T02:09:49;100986.84;;;15.95;92.34
63115;BME280;49208;50.874;6.466;2022-07-22T02:12:15;100985.97;;;15.95;92.28
63115;BME280;49208;50.874;6.466;2022-07-22T02:14:40;100991.34;;;15.95;92.70
63115;BME280;49208;50.874;6.466;2022-07-22T02:17:05;100978.00;;;15.93;92.43
63115;BME280;49208;50.874;6.466;2022-07-22T02:19:31;100986.03;;;15.93;93.02
63115;BME280;49208;50.874;6.466;2022-07-22T02:21:56;100987.88;;;15.93;93.11
63115;BME280;49208;50.874;6.466;2022-07-22T02:24:21;100982.50;;;15.93;92.92
63115;BME280;49208;50.874;6.466;2022-07-22T02:26:47;100986.03;;;15.93;92.86
63115;BME280;49208;50.874;6.466;2022-07-22T02:29:12;100982.50;;;15.93;92.95
63115;BME280;49208;50.874;6.466;2022-07-22T02:31:37;100980.69;;;15.93;93.04
63115;BME280;49208;50.874;6.466;2022-07-22T02:34:03;100978.88;;;15.94;92.97
63115;BME280;49208;50.874;6.466;2022-07-22T02:36:28;100978.00;;;15.93;92.78
63115;BME280;49208;50.874;6.466;2022-07-22T02:38:54;100977.06;;;15.94;92.92
63115;BME280;49208;50.874;6.466;2022-07-22T02:41:19;100978.88;;;15.94;92.92
63115;BME280;49208;50.874;6.466;2022-07-22T02:43:44;100975.41;;;15.92;93.31
63115;BME280;49208;50.874;6.466;2022-07-22T02:46:10;100975.41;;;15.92;93.06
63115;BME280;49208;50.874;6.466;2022-07-22T02:48:35;100968.28;;;15.91;93.28
63115;BME280;49208;50.874;6.466;2022-07-22T02:51:01;100965.59;;;15.91;93.59
63115;BME280;49208;50.874;6.466;2022-07-22T02:53:27;100972.72;;;15.92;93.70
63115;BME280;49208;50.874;6.466;2022-07-22T02:59:14;100960.22;;;15.91;93.62
63115;BME280;49208;50.874;6.466;2022-07-22T03:01:39;100961.19;;;15.90;93.31
63115;BME280;49208;50.874;6.466;2022-07-22T03:04:05;100960.41;;;15.88;93.33
63115;BME280;49208;50.874;6.466;2022-07-22T03:06:30;100965.75;;;15.88;93.50
63115;BME280;49208;50.874;6.466;2022-07-22T03:08:56;100973.81;;;15.88;93.36
63115;BME280;49208;50.874;6.466;2022-07-22T03:11:21;100971.19;;;15.86;93.32
63115;BME280;49208;50.874;6.466;2022-07-22T03:13:46;100972.06;;;15.87;93.38
63115;BME280;49208;50.874;6.466;2022-07-22T03:16:12;100971.19;;;15.86;93.58
63115;BME280;49208;50.874;6.466;2022-07-22T03:18:38;100972.06;;;15.87;93.44
63115;BME280;49208;50.874;6.466;2022-07-22T03:21:03;100970.34;;;15.86;93.33
63115;BME280;49208;50.874;6.466;2022-07-22T03:23:29;100968.59;;;15.85;93.42
63115;BME280;49208;50.874;6.466;2022-07-22T03:25:55;100969.53;;;15.84;93.58
63115;BME280;49208;50.874;6.466;2022-07-22T03:28:22;100974.91;;;15.84;93.46
63115;BME280;49208;50.874;6.466;2022-07-22T03:30:47;100967.84;;;15.81;93.51
63115;BME280;49208;50.874;6.466;2022-07-22T03:33:13;100963.50;;;15.79;93.65
63115;BME280;49208;50.874;6.466;2022-07-22T03:35:38;100958.22;;;15.77;94.01
63115;BME280;49208;50.874;6.466;2022-07-22T03:38:04;100959.25;;;15.74;93.74
63115;BME280;49208;50.874;6.466;2022-07-22T03:40:29;100955.69;;;15.74;93.79
63115;BME280;49208;50.874;6.466;2022-07-22T03:42:54;100954.84;;;15.73;93.69
63115;BME280;49208;50.874;6.466;2022-07-22T03:45:20;100953.97;;;15.73;93.52
63115;BME280;49208;50.874;6.466;2022-07-22T03:47:45;100949.47;;;15.73;93.72
63115;BME280;49208;50.874;6.466;2022-07-22T03:50:10;100952.16;;;15.73;93.63
63115;BME280;49208;50.874;6.466;2022-07-22T03:52:36;100957.44;;;15.75;93.96
63115;BME280;49208;50.874;6.466;2022-07-22T03:55:02;100954.75;;;15.75;94.15
63115;BME280;49208;50.874;6.466;2022-07-22T03:57:27;100948.50;;;15.74;94.03
63115;BME280;49208;50.874;6.466;2022-07-22T03:59:54;100949.47;;;15.73;93.24
63115;BME280;49208;50.874;6.466;2022-07-22T04:02:19;100953.00;;;15.74;92.84
63115;BME280;49208;50.874;6.466;2022-07-22T04:04:45;100954.84;;;15.73;92.65
63115;BME280;49208;50.874;6.466;2022-07-22T04:07:10;100953.88;;;15.74;92.26
63115;BME280;49208;50.874;6.466;2022-07-22T04:09:36;100955.63;;;15.75;91.49
63115;BME280;49208;50.874;6.466;2022-07-22T04:12:01;100958.31;;;15.75;90.86
63115;BME280;49208;50.874;6.466;2022-07-22T04:14:26;100960.19;;;15.73;90.58
63115;BME280;49208;50.874;6.466;2022-07-22T04:16:52;100953.97;;;15.73;90.57
63115;BME280;49208;50.874;6.466;2022-07-22T04:19:17;100959.38;;;15.71;90.64
63115;BME280;49208;50.874;6.466;2022-07-22T04:21:42;100959.38;;;15.71;90.60
63115;BME280;49208;50.874;6.466;2022-07-22T04:24:08;100961.94;;;15.74;90.14
63115;BME280;49208;50.874;6.466;2022-07-22T04:26:33;100963.81;;;15.72;89.98
63115;BME280;49208;50.874;6.466;2022-07-22T04:28:59;100956.69;;;15.71;90.26
63115;BME280;49208;50.874;6.466;2022-07-22T04:31:24;100962.06;;;15.71;90.57
63115;BME280;49208;50.874;6.466;2022-07-22T04:33:50;100956.69;;;15.71;90.76
63115;BME280;49208;50.874;6.466;2022-07-22T04:36:15;100957.63;;;15.70;90.59
63115;BME280;49208;50.874;6.466;2022-07-22T04:38:40;100961.19;;;15.71;90.60
63115;BME280;49208;50.874;6.466;2022-07-22T04:41:06;100962.06;;;15.71;90.41
63115;BME280;49208;50.874;6.466;2022-07-22T04:43:32;100961.13;;;15.72;90.16
63115;BME280;49208;50.874;6.466;2022-07-22T04:45:57;100969.13;;;15.74;89.96
63115;BME280;49208;50.874;6.466;2022-07-22T04:48:22;100967.28;;;15.74;90.58
63115;BME280;49208;50.874;6.466;2022-07-22T04:50:48;100967.28;;;15.74;91.43
63115;BME280;49208;50.874;6.466;2022-07-22T04:53:14;100965.50;;;15.75;91.09
63115;BME280;49208;50.874;6.466;2022-07-22T04:55:39;100979.78;;;15.75;91.76
63115;BME280;49208;50.874;6.466;2022-07-22T04:58:05;100966.25;;;15.77;91.24
63115;BME280;49208;50.874;6.466;2022-07-22T05:00:30;100971.56;;;15.79;91.15
63115;BME280;49208;50.874;6.466;2022-07-22T05:02:56;100977.72;;;15.81;91.30
63115;BME280;49208;50.874;6.466;2022-07-22T05:05:21;100965.16;;;15.81;91.50
63115;BME280;49208;50.874;6.466;2022-07-22T05:07:47;100965.09;;;15.83;91.72
63115;BME280;49208;50.874;6.466;2022-07-22T05:10:13;100967.72;;;15.84;91.56
63115;BME280;49208;50.874;6.466;2022-07-22T05:12:38;100964.06;;;15.85;91.54
63115;BME280;49208;50.874;6.466;2022-07-22T05:15:04;100960.47;;;15.86;91.77
63115;BME280;49208;50.874;6.466;2022-07-22T05:17:29;100961.25;;;15.88;92.04
63115;BME280;49208;50.874;6.466;2022-07-22T05:19:55;100958.50;;;15.90;92.06
63115;BME280;49208;50.874;6.466;2022-07-22T05:22:20;100956.63;;;15.92;91.85
63115;BME280;49208;50.874;6.466;2022-07-22T05:24:46;100956.44;;;15.95;91.62
63115;BME280;49208;50.874;6.466;2022-07-22T05:27:11;100959.91;;;15.97;91.90
63115;BME280;49208;50.874;6.466;2022-07-22T05:29:36;100957.16;;;15.99;91.60
63115;BME280;49208;50.874;6.466;2022-07-22T05:32:02;100946.34;;;16.00;91.87
63115;BME280;49208;50.874;6.466;2022-07-22T05:34:28;100949.84;;;16.02;91.84
63115;BME280;49208;50.874;6.466;2022-07-22T05:36:53;100952.34;;;16.05;91.65
63115;BME280;49208;50.874;6.466;2022-07-22T05:39:18;100953.22;;;16.06;91.38
63115;BME280;49208;50.874;6.466;2022-07-22T05:41:44;100951.41;;;16.06;91.06
63115;BME280;49208;50.874;6.466;2022-07-22T05:44:09;100954.91;;;16.08;90.91
63115;BME280;49208;50.874;6.466;2022-07-22T05:46:35;100951.25;;;16.09;90.92
63115;BME280;49208;50.874;6.466;2022-07-22T05:49:00;100948.50;;;16.11;90.74
63115;BME280;49208;50.874;6.466;2022-07-22T05:51:26;100950.16;;;16.13;90.43
63115;BME280;49208;50.874;6.466;2022-07-22T05:53:51;100955.44;;;16.15;90.11
63115;BME280;49208;50.874;6.466;2022-07-22T05:56:16;100951.75;;;16.17;89.74
63115;BME280;49208;50.874;6.466;2022-07-22T05:58:42;100954.34;;;16.19;89.52
63115;BME280;49208;50.874;6.466;2022-07-22T06:01:11;100950.69;;;16.20;89.56
63115;BME280;49208;50.874;6.466;2022-07-22T06:03:38;100950.56;;;16.23;89.75
63115;BME280;49208;50.874;6.466;2022-07-22T06:06:04;100949.47;;;16.27;89.73
63115;BME280;49208;50.874;6.466;2022-07-22T06:08:30;100944.88;;;16.29;88.96
63115;BME280;49208;50.874;6.466;2022-07-22T06:10:57;100941.94;;;16.34;89.01
63115;BME280;49208;50.874;6.466;2022-07-22T06:13:22;100932.84;;;16.36;nan
63115;BME280;49208;50.874;6.466;2022-07-22T06:15:47;100937.13;;;16.41;89.29
63115;BME280;49208;50.874;6.466;2022-07-22T06:18:13;100941.38;;;16.45;88.75
63115;BME280;49208;50.874;6.466;2022-07-22T06:20:38;100944.78;;;16.48;88.15
63115;BME280;49208;50.874;6.466;2022-07-22T06:23:04;100941.13;;;16.49;87.83
63115;BME280;49208;50.874;6.466;2022-07-22T06:25:29;100934.75;;;16.52;87.44
63115;BME280;49208;50.874;6.466;2022-07-22T06:27:54;100939.09;;;16.54;87.68
63115;BME280;49208;50.874;6.466;2022-07-22T06:30:20;100933.47;;;16.59;87.57
63115;BME280;49208;50.874;6.466;2022-07-22T06:32:45;100936.00;;;16.62;86.95
63115;BME280;49208;50.874;6.466;2022-07-22T06:35:11;100943.81;;;16.67;86.03
63115;BME280;49208;50.874;6.466;2022-07-22T06:37:36;100943.56;;;16.71;86.43
63115;BME280;49208;50.874;6.466;2022-07-22T06:40:02;100954.78;;;16.80;86.39
63115;BME280;49208;50.874;6.466;2022-07-22T06:42:28;100952.66;;;16.86;85.90
63115;BME280;49208;50.874;6.466;2022-07-22T06:44:53;100940.78;;;16.90;84.51
63115;BME280;49208;50.874;6.466;2022-07-22T06:47:19;100949.50;;;16.95;83.93
63115;BME280;49208;50.874;6.466;2022-07-22T06:49:44;100941.97;;;17.02;84.15
63115;BME280;49208;50.874;6.466;2022-07-22T06:52:09;100950.56;;;17.09;83.68
63115;BME280;49208;50.874;6.466;2022-07-22T06:54:35;100946.47;;;17.17;82.90
63115;BME280;49208;50.874;6.466;2022-07-22T06:57:00;100947.13;;;17.23;83.18
63115;BME280;49208;50.874;6.466;2022-07-22T06:59:25;100956.03;;;17.23;82.70
63115;BME280;49208;50.874;6.466;2022-07-22T07:01:51;100951.44;;;17.25;83.17
63115;BME280;49208;50.874;6.466;2022-07-22T07:04:16;100941.28;;;17.30;83.44
63115;BME280;49208;50.874;6.466;2022-07-22T07:06:43;100937.91;;;17.27;83.30
63115;BME280;49208;50.874;6.466;2022-07-22T07:09:09;100936.88;;;17.29;83.66
63115;BME280;49208;50.874;6.466;2022-07-22T07:11:34;100937.38;;;17.36;83.70
63115;BME280;49208;50.874;6.466;2022-07-22T07:14:00;100937.03;;;17.42;83.76
63115;BME280;49208;50.874;6.466;2022-07-22T07:16:25;100934.28;;;17.44;83.25
63115;BME280;49208;50.874;6.466;2022-07-22T07:18:51;100932.09;;;17.34;82.69
63115;BME280;49208;50.874;6.466;2022-07-22T07:21:16;100935.91;;;17.30;82.77
63115;BME280;49208;50.874;6.466;2022-07-22T07:23:42;100932.97;;;17.35;83.08
63115;BME280;49208;50.874;6.466;2022-07-22T07:26:07;100929.31;;;17.36;82.88
63115;BME280;49208;50.874;6.466;2022-07-22T07:28:33;100927.06;;;17.44;83.81
63115;BME280;49208;50.874;6.466;2022-07-22T07:30:58;100922.31;;;17.49;83.36
63115;BME280;49208;50.874;6.466;2022-07-22T07:33:23;100922.69;;;17.57;82.83
63115;BME280;49208;50.874;6.466;2022-07-22T07:35:49;100921.50;;;17.63;82.75
63115;BME280;49208;50.874;6.466;2022-07-22T07:38:15;100924.25;;;17.62;81.61
63115;BME280;49208;50.874;6.466;2022-07-22T07:40:40;100916.38;;;17.58;82.15
63115;BME280;49208;50.874;6.466;2022-07-22T07:43:06;100923.31;;;17.63;82.26
63115;BME280;49208;50.874;6.466;2022-07-22T07:45:31;100923.84;;;17.69;81.72
63115;BME280;49208;50.874;6.466;2022-07-22T07:47:58;100924.34;;;17.76;81.74
63115;BME280;49208;50.874;6.466;2022-07-22T07:50:23;100922.03;;;17.86;81.48
63115;BME280;49208;50.874;6.466;2022-07-22T07:52:50;100922.16;;;17.98;80.77
63115;BME280;49208;50.874;6.466;2022-07-22T07:55:16;100922.66;;;18.05;80.43
63115;BME280;49208;50.874;6.466;2022-07-22T07:57:42;100931.28;;;18.12;80.09
63115;BME280;49208;50.874;6.466;2022-07-22T08:00:10;100928.88;;;18.22;77.81
63115;BME280;49208;50.874;6.466;2022-07-22T08:02:36;100927.38;;;18.32;77.76
63115;BME280;49208;50.874;6.466;2022-07-22T08:05:02;100933.28;;;18.53;77.51
63115;BME280;49208;50.874;6.466;2022-07-22T08:07:28;100929.75;;;18.67;77.41
63115;BME280;49208;50.874;6.466;2022-07-22T08:09:53;100932.56;;;18.80;76.12
63115;BME280;49208;50.874;6.466;2022-07-22T08:12:19;100941.75;;;18.91;75.33
63115;BME280;49208;50.874;6.466;2022-07-22T08:14:44;100933.16;;;18.99;74.50
63115;BME280;49208;50.874;6.466;2022-07-22T08:17:10;100934.41;;;19.08;74.99
63115;BME280;49208;50.874;6.466;2022-07-22T08:19:35;100926.41;;;19.21;74.94
63115;BME280;49208;50.874;6.466;2022-07-22T08:22:02;100933.50;;;19.36;74.77
63115;BME280;49208;50.874;6.466;2022-07-22T08:24:27;100928.28;;;19.47;72.29
63115;BME280;49208;50.874;6.466;2022-07-22T08:26:53;100929.88;;;19.64;72.45
63115;BME280;49208;50.874;6.466;2022-07-22T08:29:18;100930.81;;;19.77;72.33
63115;BME280;49208;50.874;6.466;2022-07-22T08:31:44;100930.41;;;19.84;71.83
63115;BME280;49208;50.874;6.466;2022-07-22T08:34:09;100922.88;;;19.89;70.89
63115;BME280;49208;50.874;6.466;2022-07-22T08:36:35;100918.25;;;19.91;71.09
63115;BME280;49208;50.874;6.466;2022-07-22T08:39:01;100917.47;;;19.89;70.76
63115;BME280;49208;50.874;6.466;2022-07-22T08:41:26;100921.00;;;19.76;69.72
63115;BME280;49208;50.874;6.466;2022-07-22T08:43:52;100914.06;;;19.72;71.46
63115;BME280;49208;50.874;6.466;2022-07-22T08:46:17;100919.25;;;19.75;70.94
63115;BME280;49208;50.874;6.466;2022-07-22T08:48:43;100925.91;;;19.84;71.89
63115;BME280;49208;50.874;6.466;2022-07-22T08:51:08;100930.97;;;19.89;70.16
63115;BME280;49208;50.874;6.466;2022-07-22T08:53:34;100929.38;;;19.86;70.38
63115;BME280;49208;50.874;6.466;2022-07-22T08:56:00;100932.06;;;19.86;71.27
63115;BME280;49208;50.874;6.466;2022-07-22T08:58:26;100932.91;;;19.87;72.04
63115;BME280;49208;50.874;6.466;2022-07-22T09:01:09;100928.28;;;19.89;71.48
63115;BME280;49208;50.874;6.466;2022-07-22T09:03:51;100917.16;;;19.93;71.49
63115;BME280;49208;50.874;6.466;2022-07-22T09:06:19;100920.22;;;20.02;71.45
63115;BME280;49208;50.874;6.466;2022-07-22T09:09:04;100913.44;;;20.09;69.58
63115;BME280;49208;50.874;6.466;2022-07-22T09:11:30;100919.50;;;20.25;69.43
63115;BME280;49208;50.874;6.466;2022-07-22T09:14:00;100918.13;;;20.32;69.37
63115;BME280;49208;50.874;6.466;2022-07-22T09:19:03;100914.84;;;20.67;67.83
63115;BME280;49208;50.874;6.466;2022-07-22T09:21:30;100923.03;;;20.66;66.46
63115;BME280;49208;50.874;6.466;2022-07-22T09:23:55;100919.47;;;20.91;67.13
63115;BME280;49208;50.874;6.466;2022-07-22T09:26:34;100916.09;;;21.13;65.52
63115;BME280;49208;50.874;6.466;2022-07-22T09:29:00;100913.75;;;21.45;64.85
63115;BME280;49208;50.874;6.466;2022-07-22T09:31:29;100910.09;;;22.06;65.50
63115;BME280;49208;50.874;6.466;2022-07-22T09:33:57;100920.94;;;22.88;64.70
63115;BME280;49208;50.874;6.466;2022-07-22T09:36:22;100914.28;;;23.26;60.09
63115;BME280;49208;50.874;6.466;2022-07-22T09:38:48;100915.41;;;23.89;57.76
63115;BME280;49208;50.874;6.466;2022-07-22T09:41:13;100904.88;;;24.28;58.47
63115;BME280;49208;50.874;6.466;2022-07-22T09:43:39;100906.69;;;24.28;54.68
63115;BME280;49208;50.874;6.466;2022-07-22T09:46:04;100901.22;;;24.39;53.74
63115;BME280;49208;50.874;6.466;2022-07-22T09:48:30;100889.09;;;24.32;55.42
63115;BME280;49208;50.874;6.466;2022-07-22T09:50:56;100887.88;;;24.57;55.33
63115;BME280;49208;50.874;6.466;2022-07-22T09:53:26;100882.03;;;24.62;52.34
63115;BME280;49208;50.874;6.466;2022-07-22T09:56:02;100883.50;;;24.66;53.11
63115;BME280;49208;50.874;6.466;2022-07-22T09:58:28;100884.22;;;24.47;51.43
63115;BME280;49208;50.874;6.466;2022-07-22T10:00:55;100881.56;;;24.35;53.10
63115;BME280;49208;50.874;6.466;2022-07-22T10:03:31;100874.06;;;24.49;53.53
63115;BME280;49208;50.874;6.466;2022-07-22T10:05:58;100871.88;;;24.64;51.81
63115;BME280;49208;50.874;6.466;2022-07-22T10:08:28;100871.94;;;24.52;51.32
63115;BME280;49208;50.874;6.466;2022-07-22T10:10:59;100871.31;;;24.28;50.40
63115;BME280;49208;50.874;6.466;2022-07-22T10:13:25;100866.47;;;23.89;52.35
63115;BME280;49208;50.874;6.466;2022-07-22T10:15:51;100865.91;;;23.74;53.14
63115;BME280;49208;50.874;6.466;2022-07-22T10:18:18;100861.56;;;23.83;55.67
63115;BME280;49208;50.874;6.466;2022-07-22T10:20:45;100851.28;;;23.75;53.48
63115;BME280;49208;50.874;6.466;2022-07-22T10:23:13;100860.75;;;23.92;52.17
63115;BME280;49208;50.874;6.466;2022-07-22T10:25:50;100859.38;;;24.19;52.73
63115;BME280;49208;50.874;6.466;2022-07-22T10:28:31;100858.72;;;24.69;52.97
63115;BME280;49208;50.874;6.466;2022-07-22T10:31:22;100859.19;;;24.84;50.38
63115;BME280;49208;50.874;6.466;2022-07-22T10:33:51;100855.38;;;24.65;51.83
63115;BME280;49208;50.874;6.466;2022-07-22T10:36:35;100854.75;;;24.52;50.74
63115;BME280;49208;50.874;6.466;2022-07-22T10:39:09;100859.91;;;24.13;51.00
63115;BME280;49208;50.874;6.466;2022-07-22T10:41:36;100855.63;;;24.10;51.54
63115;BME280;49208;50.874;6.466;2022-07-22T10:44:03;100855.31;;;23.92;52.31
63115;BME280;49208;50.874;6.466;2022-07-22T10:49:15;100864.84;;;23.54;51.54
63115;BME280;49208;50.874;6.466;2022-07-22T10:54:33;100862.50;;;24.14;52.81
63115;BME280;49208;50.874;6.466;2022-07-22T10:56:59;100862.09;;;24.19;51.06
63115;BME280;49208;50.874;6.466;2022-07-22T10:59:25;100854.88;;;24.29;51.99
63115;BME280;49208;50.874;6.466;2022-07-22T11:01:51;100850.25;;;24.20;51.22
63115;BME280;49208;50.874;6.466;2022-07-22T11:04:24;100845.88;;;24.08;51.07
63115;BME280;49208;50.874;6.466;2022-07-22T11:06:52;100848.84;;;24.47;52.21
63115;BME280;49208;50.874;6.466;2022-07-22T11:09:21;100845.69;;;24.72;54.34
63115;BME280;49208;50.874;6.466;2022-07-22T11:11:49;100840.22;;;25.03;50.30
63115;BME280;49208;50.874;6.466;2022-07-22T11:14:17;100844.53;;;25.06;49.10
63115;BME280;49208;50.874;6.466;2022-07-22T11:16:45;100834.88;;;25.42;49.24
63115;BME280;49208;50.874;6.466;2022-07-22T11:19:11;100827.84;;;25.49;49.93
63115;BME280;49208;50.874;6.466;2022-07-22T11:21:36;100842.94;;;25.13;48.63
63115;BME280;49208;50.874;6.466;2022-07-22T11:24:04;100843.88;;;24.52;50.10
63115;BME280;49208;50.874;6.466;2022-07-22T11:26:42;100842.47;;;24.57;51.24
63115;BME280;49208;50.874;6.466;2022-07-22T11:29:09;100845.09;;;24.69;50.18
63115;BME280;49208;50.874;6.466;2022-07-22T11:31:36;100840.75;;;24.35;50.05
63115;BME280;49208;50.874;6.466;2022-07-22T11:34:28;100841.47;;;24.16;50.77
63115;BME280;49208;50.874;6.466;2022-07-22T11:36:55;100829.25;;;24.32;51.18
63115;BME280;49208;50.874;6.466;2022-07-22T11:39:28;100829.72;;;24.37;51.82
63115;BME280;49208;50.874;6.466;2022-07-22T11:41:56;100826.03;;;24.69;51.05
63115;BME280;49208;50.874;6.466;2022-07-22T11:44:25;100814.78;;;24.83;50.94
63115;BME280;49208;50.874;6.466;2022-07-22T11:46:51;100817.88;;;24.69;50.53
63115;BME280;49208;50.874;6.466;2022-07-22T11:49:19;100820.25;;;24.93;50.85
63115;BME280;49208;50.874;6.466;2022-07-22T11:51:45;100821.41;;;24.90;50.56
63115;BME280;49208;50.874;6.466;2022-07-22T11:54:11;100808.19;;;24.86;50.31
63115;BME280;49208;50.874;6.466;2022-07-22T11:56:37;100808.66;;;24.91;50.09
63115;BME280;49208;50.874;6.466;2022-07-22T11:59:04;100808.56;;;25.12;50.15
63115;BME280;49208;50.874;6.466;2022-07-22T12:01:30;100797.09;;;25.18;51.35
63115;BME280;49208;50.874;6.466;2022-07-22T12:03:58;100799.66;;;25.10;48.74
63115;BME280;49208;50.874;6.466;2022-07-22T12:06:26;100799.63;;;24.90;49.01
63115;BME280;49208;50.874;6.466;2022-07-22T12:09:01;100794.19;;;25.00;49.73
63115;BME280;49208;50.874;6.466;2022-07-22T12:11:28;100808.81;;;24.99;49.46
63115;BME280;49208;50.874;6.466;2022-07-22T12:13:53;100794.22;;;24.69;49.14
63115;BME280;49208;50.874;6.466;2022-07-22T12:16:22;100792.75;;;24.96;50.54
63115;BME280;49208;50.874;6.466;2022-07-22T12:19:11;100785.75;;;25.13;49.28
63115;BME280;49208;50.874;6.466;2022-07-22T12:24:45;100789.53;;;24.81;49.57
63115;BME280;49208;50.874;6.466;2022-07-22T12:27:13;100779.88;;;24.57;51.01
63115;BME280;49208;50.874;6.466;2022-07-22T12:37:23;100786.53;;;24.74;51.21
63115;BME280;49208;50.874;6.466;2022-07-22T12:42:22;100779.94;;;24.77;49.77
63115;BME280;49208;50.874;6.466;2022-07-22T12:45:09;100768.31;;;24.75;49.97
63115;BME280;49208;50.874;6.466;2022-07-22T12:50:33;100755.88;;;24.92;50.94
63115;BME280;49208;50.874;6.466;2022-07-22T12:53:00;100764.47;;;24.87;49.67
63115;BME280;49208;50.874;6.466;2022-07-22T12:55:31;100762.34;;;24.91;50.29
63115;BME280;49208;50.874;6.466;2022-07-22T12:57:57;100763.72;;;24.75;49.52
63115;BME280;49208;50.874;6.466;2022-07-22T13:00:27;100765.59;;;24.75;50.37
63115;BME280;49208;50.874;6.466;2022-07-22T13:02:54;100762.06;;;24.84;50.14
63115;BME280;49208;50.874;6.466;2022-07-22T13:05:21;100761.19;;;24.93;49.01
63115;BME280;49208;50.874;6.466;2022-07-22T13:07:47;100758.88;;;24.79;50.57
63115;BME280;49208;50.874;6.466;2022-07-22T13:10:14;100766.00;;;24.70;50.10
63115;BME280;49208;50.874;6.466;2022-07-22T13:12:40;100759.63;;;24.50;50.63
63115;BME280;49208;50.874;6.466;2022-07-22T13:15:06;100755.81;;;24.63;52.12